sensor_id;sensor_type;location;lat;lon;timestamp;P1;durP1;ratioP1;P2;durP2;ratioP2
25549;SDS011;13444;50.562;7.262;2023-06-14T00:02:11;7.72;;;4.45;;
25549;SDS011;13444;50.562;7.262;2023-06-14T00:04:36;5.82;;;3.92;;
25549;SDS011;13444;50.562;7.262;2023-06-14T00:07:04;6.82;;;4.25;;
25549;SDS011;13444;50.562;7.262;2023-06-14T00:09:33;4.68;;;4.18;;
25549;SDS011;13444;50.562;7.262;2023-06-14T00:11:58;7.55;;;4.10;;
25549;SDS011;13444;50.562;7.262;2023-06-14T00:14:24;6.47;;;4.88;;
25549;SDS011;13444;50.562;7.262;2023-06-14T00:16:49;7.50;;;4.50;;
25549;SDS011;13444;50.562;7.262;2023-06-14T00:19:17;6.30;;;3.85;;
25549;SDS011;13444;50.562;7.262;2023-06-14T00:21:43;4.78;;;4.15;;
25549;SDS011;13444;50.562;7.262;2023-06-14T00:24:08;7.93;;;4.65;;
25549;SDS011;13444;50.562;7.262;2023-06-14T00:26:34;5.32;;;4.60;;
25549;SDS011;13444;50.562;7.262;2023-06-14T00:28:59;6.57;;;4.38;;
25549;SDS011;13444;50.562;7.262;2023-06-14T00:31:25;4.70;;;4.13;;
25549;SDS011;13444;50.562;7.262;2023-06-14T00:33:50;6.30;;;4.43;;
25549;SDS011;13444;50.562;7.262;2023-06-14T00:36:16;7.57;;;4.53;;
25549;SDS011;13444;50.562;7.262;2023-06-14T00:38:41;8.38;;;4.45;;
25549;SDS011;13444;50.562;7.262;2023-06-14T00:41:07;8.63;;;4.30;;
25549;SDS011;13444;50.562;7.262;2023-06-14T00:43:32;7.75;;;4.30;;
25549;SDS011;13444;50.562;7.262;2023-06-14T00:45:59;6.72;;;4.43;;
25549;SDS011;13444;50.562;7.262;2023-06-14T00:48:25;5.88;;;4.13;;
25549;SDS011;13444;50.562;7.262;2023-06-14T00:50:52;7.35;;;4.40;;
25549;SDS011;13444;50.562;7.262;2023-06-14T00:53:18;7.65;;;4.53;;
25549;SDS011;13444;50.562;7.262;2023-06-14T00:55:45;6.68;;;3.90;;
25549;SDS011;13444;50.562;7.262;2023-06-14T00:58:12;5.25;;;4.43;;
25549;SDS011;13444;50.562;7.262;2023-06-14T01:00:38;6.63;;;4.57;;
25549;SDS011;13444;50.562;7.262;2023-06-14T01:03:04;6.25;;;4.57;;
25549;SDS011;13444;50.562;7.262;2023-06-14T01:05:29;5.93;;;4.10;;
25549;SDS011;13444;50.562;7.262;2023-06-14T01:08:07;5.50;;;4.43;;
25549;SDS011;13444;50.562;7.262;2023-06-14T01:11:10;6.25;;;4.20;;
25549;SDS011;13444;50.562;7.262;2023-06-14T01:13:40;7.30;;;4.22;;
25549;SDS011;13444;50.562;7.262;2023-06-14T01:16:10;6.22;;;4.60;;
25549;SDS011;13444;50.562;7.262;2023-06-14T01:18:36;5.30;;;4.22;;
25549;SDS011;13444;50.562;7.262;2023-06-14T01:21:02;7.28;;;4.57;;
25549;SDS011;13444;50.562;7.262;2023-06-14T01:23:30;8.38;;;4.10;;
25549;SDS011;13444;50.562;7.262;2023-06-14T01:26:00;6.82;;;5.05;;
25549;SDS011;13444;50.562;7.262;2023-06-14T01:28:28;6.72;;;4.32;;
25549;SDS011;13444;50.562;7.262;2023-06-14T01:30:57;5.43;;;4.38;;
25549;SDS011;13444;50.562;7.262;2023-06-14T01:33:26;6.20;;;4.70;;
25549;SDS011;13444;50.562;7.262;2023-06-14T01:35:53;9.43;;;4.70;;
25549;SDS011;13444;50.562;7.262;2023-06-14T01:38:25;5.50;;;3.88;;
25549;SDS011;13444;50.562;7.262;2023-06-14T01:40:51;7.03;;;4.82;;
25549;SDS011;13444;50.562;7.262;2023-06-14T01:43:19;7.32;;;4.88;;
25549;SDS011;13444;50.562;7.262;2023-06-14T01:45:45;6.40;;;5.00;;
25549;SDS011;13444;50.562;7.262;2023-06-14T01:48:12;5.82;;;4.97;;
25549;SDS011;13444;50.562;7.262;2023-06-14T01:50:38;7.57;;;4.65;;
25549;SDS011;13444;50.562;7.262;2023-06-14T01:53:06;7.50;;;5.10;;
25549;SDS011;13444;50.562;7.262;2023-06-14T01:55:32;5.18;;;4.18;;
25549;SDS011;13444;50.562;7.262;2023-06-14T01:58:02;5.60;;;4.22;;
25549;SDS011;13444;50.562;7.262;2023-06-14T02:00:28;6.68;;;4.60;;
25549;SDS011;13444;50.562;7.262;2023-06-14T02:02:53;7.47;;;4.60;;
25549;SDS011;13444;50.562;7.262;2023-06-14T02:05:19;7.43;;;4.47;;
25549;SDS011;13444;50.562;7.262;2023-06-14T02:07:45;5.60;;;4.78;;
25549;SDS011;13444;50.562;7.262;2023-06-14T02:10:11;5.40;;;4.70;;
25549;SDS011;13444;50.562;7.262;2023-06-14T02:12:37;8.73;;;4.35;;
25549;SDS011;13444;50.562;7.262;2023-06-14T02:15:02;7.43;;;5.15;;
25549;SDS011;13444;50.562;7.262;2023-06-14T02:17:29;7.07;;;4.35;;
25549;SDS011;13444;50.562;7.262;2023-06-14T02:19:54;6.25;;;4.45;;
25549;SDS011;13444;50.562;7.262;2023-06-14T02:22:22;6.13;;;4.22;;
25549;SDS011;13444;50.562;7.262;2023-06-14T02:24:48;5.93;;;5.07;;
25549;SDS011;13444;50.562;7.262;2023-06-14T02:27:13;9.18;;;4.93;;
25549;SDS011;13444;50.562;7.262;2023-06-14T02:29:39;8.68;;;5.18;;
25549;SDS011;13444;50.562;7.262;2023-06-14T02:32:05;8.10;;;5.45;;
25549;SDS011;13444;50.562;7.262;2023-06-14T02:34:32;6.72;;;4.93;;
25549;SDS011;13444;50.562;7.262;2023-06-14T02:36:58;5.28;;;4.75;;
25549;SDS011;13444;50.562;7.262;2023-06-14T02:39:24;8.85;;;5.03;;
25549;SDS011;13444;50.562;7.262;2023-06-14T02:41:50;6.05;;;4.55;;
25549;SDS011;13444;50.562;7.262;2023-06-14T02:44:17;5.63;;;5.07;;
25549;SDS011;13444;50.562;7.262;2023-06-14T02:46:43;8.65;;;5.70;;
25549;SDS011;13444;50.562;7.262;2023-06-14T02:49:10;5.20;;;4.70;;
25549;SDS011;13444;50.562;7.262;2023-06-14T02:51:38;6.88;;;4.82;;
25549;SDS011;13444;50.562;7.262;2023-06-14T02:54:05;6.25;;;5.32;;
25549;SDS011;13444;50.562;7.262;2023-06-14T02:56:30;7.07;;;4.65;;
25549;SDS011;13444;50.562;7.262;2023-06-14T02:58:56;5.28;;;4.65;;
25549;SDS011;13444;50.562;7.262;2023-06-14T03:01:22;6.55;;;4.95;;
25549;SDS011;13444;50.562;7.262;2023-06-14T03:03:48;6.35;;;4.75;;
25549;SDS011;13444;50.562;7.262;2023-06-14T03:06:13;7.18;;;4.88;;
25549;SDS011;13444;50.562;7.262;2023-06-14T03:08:41;7.68;;;5.30;;
25549;SDS011;13444;50.562;7.262;2023-06-14T03:11:07;6.38;;;5.15;;
25549;SDS011;13444;50.562;7.262;2023-06-14T03:13:36;7.18;;;5.40;;
25549;SDS011;13444;50.562;7.262;2023-06-14T03:16:02;6.72;;;4.70;;
25549;SDS011;13444;50.562;7.262;2023-06-14T03:18:31;5.25;;;4.75;;
25549;SDS011;13444;50.562;7.262;2023-06-14T03:21:00;5.60;;;4.55;;
25549;SDS011;13444;50.562;7.262;2023-06-14T03:23:26;6.80;;;4.75;;
25549;SDS011;13444;50.562;7.262;2023-06-14T03:25:52;6.22;;;4.78;;
25549;SDS011;13444;50.562;7.262;2023-06-14T03:28:17;8.70;;;6.05;;
25549;SDS011;13444;50.562;7.262;2023-06-14T03:30:43;6.47;;;5.40;;
25549;SDS011;13444;50.562;7.262;2023-06-14T03:33:09;7.82;;;4.85;;
25549;SDS011;13444;50.562;7.262;2023-06-14T03:35:35;6.93;;;5.10;;
25549;SDS011;13444;50.562;7.262;2023-06-14T03:38:01;6.38;;;4.70;;
25549;SDS011;13444;50.562;7.262;2023-06-14T03:40:27;7.38;;;4.43;;
25549;SDS011;13444;50.562;7.262;2023-06-14T03:42:53;6.65;;;5.05;;
25549;SDS011;13444;50.562;7.262;2023-06-14T03:45:19;5.60;;;5.03;;
25549;SDS011;13444;50.562;7.262;2023-06-14T03:47:45;9.70;;;5.50;;
25549;SDS011;13444;50.562;7.262;2023-06-14T03:50:11;6.70;;;5.55;;
25549;SDS011;13444;50.562;7.262;2023-06-14T03:52:37;9.80;;;4.93;;
25549;SDS011;13444;50.562;7.262;2023-06-14T03:55:03;6.22;;;5.43;;
25549;SDS011;13444;50.562;7.262;2023-06-14T03:57:29;7.38;;;5.43;;
25549;SDS011;13444;50.562;7.262;2023-06-14T03:59:55;6.70;;;5.07;;
25549;SDS011;13444;50.562;7.262;2023-06-14T04:02:21;7.38;;;5.18;;
25549;SDS011;13444;50.562;7.262;2023-06-14T04:04:47;7.95;;;5.05;;
25549;SDS011;13444;50.562;7.262;2023-06-14T04:07:15;5.55;;;4.43;;
25549;SDS011;13444;50.562;7.262;2023-06-14T04:09:44;9.45;;;5.05;;
25549;SDS011;13444;50.562;7.262;2023-06-14T04:12:10;6.45;;;5.20;;
25549;SDS011;13444;50.562;7.262;2023-06-14T04:14:39;13.80;;;5.90;;
25549;SDS011;13444;50.562;7.262;2023-06-14T04:17:05;6.60;;;5.40;;
25549;SDS011;13444;50.562;7.262;2023-06-14T04:19:31;6.78;;;5.13;;
25549;SDS011;13444;50.562;7.262;2023-06-14T04:21:57;6.43;;;4.65;;
25549;SDS011;13444;50.562;7.262;2023-06-14T04:24:27;5.45;;;4.85;;
25549;SDS011;13444;50.562;7.262;2023-06-14T04:26:56;8.63;;;5.50;;
25549;SDS011;13444;50.562;7.262;2023-06-14T04:29:26;5.95;;;4.88;;
25549;SDS011;13444;50.562;7.262;2023-06-14T04:31:53;8.35;;;5.07;;
25549;SDS011;13444;50.562;7.262;2023-06-14T04:34:19;7.68;;;5.38;;
25549;SDS011;13444;50.562;7.262;2023-06-14T04:36:46;8.10;;;5.97;;
25549;SDS011;13444;50.562;7.262;2023-06-14T04:39:18;6.15;;;5.05;;
25549;SDS011;13444;50.562;7.262;2023-06-14T04:41:44;7.40;;;5.13;;
25549;SDS011;13444;50.562;7.262;2023-06-14T04:44:10;6.82;;;4.78;;
25549;SDS011;13444;50.562;7.262;2023-06-14T04:46:35;10.10;;;5.07;;
25549;SDS011;13444;50.562;7.262;2023-06-14T04:49:14;7.85;;;4.72;;
25549;SDS011;13444;50.562;7.262;2023-06-14T04:51:43;12.15;;;5.25;;
25549;SDS011;13444;50.562;7.262;2023-06-14T04:54:10;8.38;;;5.32;;
25549;SDS011;13444;50.562;7.262;2023-06-14T04:56:38;6.95;;;5.20;;
25549;SDS011;13444;50.562;7.262;2023-06-14T04:59:05;7.38;;;5.35;;
25549;SDS011;13444;50.562;7.262;2023-06-14T05:01:30;7.25;;;5.28;;
25549;SDS011;13444;50.562;7.262;2023-06-14T05:03:57;6.82;;;5.28;;
25549;SDS011;13444;50.562;7.262;2023-06-14T05:06:23;9.50;;;6.30;;
25549;SDS011;13444;50.562;7.262;2023-06-14T05:08:49;6.05;;;4.90;;
25549;SDS011;13444;50.562;7.262;2023-06-14T05:11:15;8.85;;;4.43;;
25549;SDS011;13444;50.562;7.262;2023-06-14T05:13:42;12.98;;;5.63;;
25549;SDS011;13444;50.562;7.262;2023-06-14T05:16:08;6.18;;;4.65;;
25549;SDS011;13444;50.562;7.262;2023-06-14T05:18:34;7.97;;;5.68;;
25549;SDS011;13444;50.562;7.262;2023-06-14T05:21:00;8.70;;;5.03;;
25549;SDS011;13444;50.562;7.262;2023-06-14T05:23:26;5.93;;;4.80;;
25549;SDS011;13444;50.562;7.262;2023-06-14T05:25:51;6.05;;;5.32;;
25549;SDS011;13444;50.562;7.262;2023-06-14T05:28:18;9.50;;;5.47;;
25549;SDS011;13444;50.562;7.262;2023-06-14T05:30:43;7.85;;;5.32;;
25549;SDS011;13444;50.562;7.262;2023-06-14T05:33:09;7.55;;;5.30;;
25549;SDS011;13444;50.562;7.262;2023-06-14T05:35:34;7.55;;;5.72;;
25549;SDS011;13444;50.562;7.262;2023-06-14T05:38:00;8.43;;;5.50;;
25549;SDS011;13444;50.562;7.262;2023-06-14T05:40:26;8.27;;;5.32;;
25549;SDS011;13444;50.562;7.262;2023-06-14T05:42:51;6.85;;;4.68;;
25549;SDS011;13444;50.562;7.262;2023-06-14T05:45:17;11.70;;;5.22;;
25549;SDS011;13444;50.562;7.262;2023-06-14T05:47:43;9.90;;;5.70;;
25549;SDS011;13444;50.562;7.262;2023-06-14T05:50:08;8.15;;;5.18;;
25549;SDS011;13444;50.562;7.262;2023-06-14T05:52:34;14.70;;;4.75;;
25549;SDS011;13444;50.562;7.262;2023-06-14T05:55:01;11.68;;;4.75;;
25549;SDS011;13444;50.562;7.262;2023-06-14T05:57:28;7.35;;;4.30;;
25549;SDS011;13444;50.562;7.262;2023-06-14T05:59:54;9.50;;;4.60;;
25549;SDS011;13444;50.562;7.262;2023-06-14T06:02:19;7.60;;;4.72;;
25549;SDS011;13444;50.562;7.262;2023-06-14T06:04:45;8.27;;;5.05;;
25549;SDS011;13444;50.562;7.262;2023-06-14T06:07:10;7.57;;;5.03;;
25549;SDS011;13444;50.562;7.262;2023-06-14T06:09:36;7.90;;;5.15;;
25549;SDS011;13444;50.562;7.262;2023-06-14T06:12:02;6.20;;;4.68;;
25549;SDS011;13444;50.562;7.262;2023-06-14T06:14:27;8.60;;;4.60;;
25549;SDS011;13444;50.562;7.262;2023-06-14T06:16:54;5.60;;;4.28;;
25549;SDS011;13444;50.562;7.262;2023-06-14T06:19:19;8.18;;;5.10;;
25549;SDS011;13444;50.562;7.262;2023-06-14T06:21:45;19.90;;;7.65;;
25549;SDS011;13444;50.562;7.262;2023-06-14T06:24:11;22.23;;;9.05;;
25549;SDS011;13444;50.562;7.262;2023-06-14T06:26:36;13.93;;;6.32;;
25549;SDS011;13444;50.562;7.262;2023-06-14T06:29:02;10.07;;;5.22;;
25549;SDS011;13444;50.562;7.262;2023-06-14T06:31:28;10.75;;;5.50;;
25549;SDS011;13444;50.562;7.262;2023-06-14T06:33:54;8.38;;;5.05;;
25549;SDS011;13444;50.562;7.262;2023-06-14T06:36:20;9.02;;;5.00;;
25549;SDS011;13444;50.562;7.262;2023-06-14T06:38:46;9.05;;;4.85;;
25549;SDS011;13444;50.562;7.262;2023-06-14T06:41:12;5.20;;;4.18;;
25549;SDS011;13444;50.562;7.262;2023-06-14T06:43:38;7.95;;;4.22;;
25549;SDS011;13444;50.562;7.262;2023-06-14T06:46:03;5.22;;;4.30;;
25549;SDS011;13444;50.562;7.262;2023-06-14T06:48:29;5.78;;;4.30;;
25549;SDS011;13444;50.562;7.262;2023-06-14T06:50:55;7.03;;;3.67;;
25549;SDS011;13444;50.562;7.262;2023-06-14T06:53:20;8.93;;;4.30;;
25549;SDS011;13444;50.562;7.262;2023-06-14T06:55:46;7.97;;;3.97;;
25549;SDS011;13444;50.562;7.262;2023-06-14T06:58:11;5.07;;;4.05;;
25549;SDS011;13444;50.562;7.262;2023-06-14T07:00:37;5.13;;;3.80;;
25549;SDS011;13444;50.562;7.262;2023-06-14T07:03:03;5.28;;;3.85;;
25549;SDS011;13444;50.562;7.262;2023-06-14T07:05:29;5.88;;;3.65;;
25549;SDS011;13444;50.562;7.262;2023-06-14T07:07:54;4.70;;;3.40;;
25549;SDS011;13444;50.562;7.262;2023-06-14T07:10:21;6.40;;;3.38;;
25549;SDS011;13444;50.562;7.262;2023-06-14T07:12:46;8.20;;;3.85;;
25549;SDS011;13444;50.562;7.262;2023-06-14T07:15:12;5.53;;;3.22;;
25549;SDS011;13444;50.562;7.262;2023-06-14T07:17:38;6.95;;;3.40;;
25549;SDS011;13444;50.562;7.262;2023-06-14T07:20:03;8.20;;;3.55;;
25549;SDS011;13444;50.562;7.262;2023-06-14T07:22:42;4.28;;;3.45;;
25549;SDS011;13444;50.562;7.262;2023-06-14T07:25:11;8.43;;;3.70;;
25549;SDS011;13444;50.562;7.262;2023-06-14T07:27:41;5.93;;;3.60;;
25549;SDS011;13444;50.562;7.262;2023-06-14T07:30:07;4.40;;;3.22;;
25549;SDS011;13444;50.562;7.262;2023-06-14T07:32:33;6.35;;;3.35;;
25549;SDS011;13444;50.562;7.262;2023-06-14T07:34:59;4.65;;;3.35;;
25549;SDS011;13444;50.562;7.262;2023-06-14T07:37:25;4.75;;;3.33;;
25549;SDS011;13444;50.562;7.262;2023-06-14T07:39:50;5.28;;;3.00;;
25549;SDS011;13444;50.562;7.262;2023-06-14T07:42:16;4.60;;;2.90;;
25549;SDS011;13444;50.562;7.262;2023-06-14T07:44:41;5.28;;;2.85;;
25549;SDS011;13444;50.562;7.262;2023-06-14T07:47:07;5.40;;;2.72;;
25549;SDS011;13444;50.562;7.262;2023-06-14T07:49:32;7.28;;;3.03;;
25549;SDS011;13444;50.562;7.262;2023-06-14T07:51:58;8.88;;;3.00;;
25549;SDS011;13444;50.562;7.262;2023-06-14T07:54:23;3.38;;;2.80;;
25549;SDS011;13444;50.562;7.262;2023-06-14T07:56:51;5.60;;;2.85;;
25549;SDS011;13444;50.562;7.262;2023-06-14T07:59:17;3.78;;;2.60;;
25549;SDS011;13444;50.562;7.262;2023-06-14T08:01:42;3.55;;;2.75;;
25549;SDS011;13444;50.562;7.262;2023-06-14T08:04:12;7.50;;;2.63;;
25549;SDS011;13444;50.562;7.262;2023-06-14T08:06:38;3.88;;;2.50;;
25549;SDS011;13444;50.562;7.262;2023-06-14T08:09:05;6.38;;;2.85;;
25549;SDS011;13444;50.562;7.262;2023-06-14T08:11:30;4.65;;;2.78;;
25549;SDS011;13444;50.562;7.262;2023-06-14T08:13:56;3.75;;;2.25;;
25549;SDS011;13444;50.562;7.262;2023-06-14T08:16:22;7.75;;;2.40;;
25549;SDS011;13444;50.562;7.262;2023-06-14T08:18:48;6.00;;;2.58;;
25549;SDS011;13444;50.562;7.262;2023-06-14T08:21:13;7.00;;;2.75;;
25549;SDS011;13444;50.562;7.262;2023-06-14T08:23:39;4.43;;;2.40;;
25549;SDS011;13444;50.562;7.262;2023-06-14T08:26:07;8.98;;;3.05;;
25549;SDS011;13444;50.562;7.262;2023-06-14T08:28:33;4.68;;;2.58;;
25549;SDS011;13444;50.562;7.262;2023-06-14T08:30:59;3.60;;;2.63;;
25549;SDS011;13444;50.562;7.262;2023-06-14T08:33:25;2.92;;;2.50;;
25549;SDS011;13444;50.562;7.262;2023-06-14T08:35:50;8.60;;;2.47;;
25549;SDS011;13444;50.562;7.262;2023-06-14T08:38:16;4.95;;;1.73;;
25549;SDS011;13444;50.562;7.262;2023-06-14T08:40:41;3.33;;;1.63;;
25549;SDS011;13444;50.562;7.262;2023-06-14T08:43:07;2.72;;;1.42;;
25549;SDS011;13444;50.562;7.262;2023-06-14T08:45:33;4.15;;;1.42;;
25549;SDS011;13444;50.562;7.262;2023-06-14T08:47:59;4.40;;;1.65;;
25549;SDS011;13444;50.562;7.262;2023-06-14T08:50:25;3.33;;;1.48;;
25549;SDS011;13444;50.562;7.262;2023-06-14T08:52:57;2.72;;;1.30;;
25549;SDS011;13444;50.562;7.262;2023-06-14T08:55:27;1.58;;;1.40;;
25549;SDS011;13444;50.562;7.262;2023-06-14T08:57:55;2.22;;;1.25;;
25549;SDS011;13444;50.562;7.262;2023-06-14T09:00:25;1.80;;;1.52;;
25549;SDS011;13444;50.562;7.262;2023-06-14T09:02:52;2.50;;;1.60;;
25549;SDS011;13444;50.562;7.262;2023-06-14T09:05:26;2.60;;;1.08;;
25549;SDS011;13444;50.562;7.262;2023-06-14T09:07:52;3.13;;;1.67;;
25549;SDS011;13444;50.562;7.262;2023-06-14T09:10:21;3.42;;;1.60;;
25549;SDS011;13444;50.562;7.262;2023-06-14T09:12:47;2.42;;;1.35;;
25549;SDS011;13444;50.562;7.262;2023-06-14T09:15:13;3.50;;;1.80;;
25549;SDS011;13444;50.562;7.262;2023-06-14T09:17:39;2.90;;;2.05;;
25549;SDS011;13444;50.562;7.262;2023-06-14T09:20:06;3.30;;;1.70;;
25549;SDS011;13444;50.562;7.262;2023-06-14T09:22:38;3.67;;;1.95;;
25549;SDS011;13444;50.562;7.262;2023-06-14T09:25:04;8.45;;;2.45;;
25549;SDS011;13444;50.562;7.262;2023-06-14T09:27:30;3.08;;;1.60;;
25549;SDS011;13444;50.562;7.262;2023-06-14T09:29:56;3.47;;;1.67;;
25549;SDS011;13444;50.562;7.262;2023-06-14T09:32:22;2.30;;;1.38;;
25549;SDS011;13444;50.562;7.262;2023-06-14T09:34:48;4.75;;;1.77;;
25549;SDS011;13444;50.562;7.262;2023-06-14T09:37:30;5.05;;;2.15;;
25549;SDS011;13444;50.562;7.262;2023-06-14T09:39:56;2.30;;;1.67;;
25549;SDS011;13444;50.562;7.262;2023-06-14T09:42:22;3.28;;;1.92;;
25549;SDS011;13444;50.562;7.262;2023-06-14T09:44:51;2.83;;;1.77;;
25549;SDS011;13444;50.562;7.262;2023-06-14T09:47:18;4.28;;;1.80;;
25549;SDS011;13444;50.562;7.262;2023-06-14T09:49:44;5.00;;;2.00;;
25549;SDS011;13444;50.562;7.262;2023-06-14T09:52:10;3.10;;;1.70;;
25549;SDS011;13444;50.562;7.262;2023-06-14T09:54:40;3.95;;;1.88;;
25549;SDS011;13444;50.562;7.262;2023-06-14T09:57:09;3.13;;;1.65;;
25549;SDS011;13444;50.562;7.262;2023-06-14T09:59:36;3.45;;;1.80;;
25549;SDS011;13444;50.562;7.262;2023-06-14T10:02:12;2.53;;;1.83;;
25549;SDS011;13444;50.562;7.262;2023-06-14T10:04:48;2.33;;;1.70;;
25549;SDS011;13444;50.562;7.262;2023-06-14T10:07:22;5.00;;;1.73;;
25549;SDS011;13444;50.562;7.262;2023-06-14T10:09:52;4.82;;;1.90;;
25549;SDS011;13444;50.562;7.262;2023-06-14T10:12:18;6.22;;;1.90;;
25549;SDS011;13444;50.562;7.262;2023-06-14T10:14:48;3.28;;;1.40;;
25549;SDS011;13444;50.562;7.262;2023-06-14T10:17:31;2.70;;;1.67;;
25549;SDS011;13444;50.562;7.262;2023-06-14T10:22:39;3.22;;;1.67;;
25549;SDS011;13444;50.562;7.262;2023-06-14T10:25:25;2.85;;;1.67;;
25549;SDS011;13444;50.562;7.262;2023-06-14T10:28:02;3.42;;;1.80;;
25549;SDS011;13444;50.562;7.262;2023-06-14T10:30:36;5.25;;;1.80;;
25549;SDS011;13444;50.562;7.262;2023-06-14T10:33:05;2.10;;;1.50;;
25549;SDS011;13444;50.562;7.262;2023-06-14T10:35:32;2.92;;;1.73;;
25549;SDS011;13444;50.562;7.262;2023-06-14T10:38:08;4.47;;;1.67;;
25549;SDS011;13444;50.562;7.262;2023-06-14T10:40:36;4.97;;;1.60;;
25549;SDS011;13444;50.562;7.262;2023-06-14T10:43:20;3.45;;;1.45;;
25549;SDS011;13444;50.562;7.262;2023-06-14T10:48:42;2.72;;;1.50;;
25549;SDS011;13444;50.562;7.262;2023-06-14T10:51:21;3.50;;;1.50;;
25549;SDS011;13444;50.562;7.262;2023-06-14T10:53:47;5.70;;;1.40;;
25549;SDS011;13444;50.562;7.262;2023-06-14T10:56:27;4.10;;;1.50;;
25549;SDS011;13444;50.562;7.262;2023-06-14T10:58:56;2.55;;;1.40;;
25549;SDS011;13444;50.562;7.262;2023-06-14T11:04:14;2.72;;;1.30;;
25549;SDS011;13444;50.562;7.262;2023-06-14T11:06:48;2.95;;;1.52;;
25549;SDS011;13444;50.562;7.262;2023-06-14T11:12:08;1.77;;;1.25;;
25549;SDS011;13444;50.562;7.262;2023-06-14T11:14:36;2.45;;;1.35;;
25549;SDS011;13444;50.562;7.262;2023-06-14T11:17:03;2.88;;;1.15;;
25549;SDS011;13444;50.562;7.262;2023-06-14T11:19:29;2.03;;;1.40;;
25549;SDS011;13444;50.562;7.262;2023-06-14T11:21:55;6.25;;;1.42;;
25549;SDS011;13444;50.562;7.262;2023-06-14T11:24:20;3.55;;;1.40;;
25549;SDS011;13444;50.562;7.262;2023-06-14T11:26:46;3.28;;;1.30;;
25549;SDS011;13444;50.562;7.262;2023-06-14T11:29:14;6.40;;;1.60;;
25549;SDS011;13444;50.562;7.262;2023-06-14T11:31:43;1.23;;;1.13;;
25549;SDS011;13444;50.562;7.262;2023-06-14T11:34:12;3.08;;;1.10;;
25549;SDS011;13444;50.562;7.262;2023-06-14T11:36:38;1.55;;;1.20;;
25549;SDS011;13444;50.562;7.262;2023-06-14T11:39:05;1.38;;;1.15;;
25549;SDS011;13444;50.562;7.262;2023-06-14T11:44:05;1.65;;;1.13;;
25549;SDS011;13444;50.562;7.262;2023-06-14T11:46:31;5.72;;;1.20;;
25549;SDS011;13444;50.562;7.262;2023-06-14T11:48:56;1.73;;;1.35;;
25549;SDS011;13444;50.562;7.262;2023-06-14T11:51:23;2.70;;;1.48;;
25549;SDS011;13444;50.562;7.262;2023-06-14T11:53:48;1.33;;;1.00;;
25549;SDS011;13444;50.562;7.262;2023-06-14T11:56:14;2.60;;;1.17;;
25549;SDS011;13444;50.562;7.262;2023-06-14T11:58:42;2.45;;;1.20;;
25549;SDS011;13444;50.562;7.262;2023-06-14T12:01:08;3.60;;;1.15;;
25549;SDS011;13444;50.562;7.262;2023-06-14T12:03:34;3.95;;;1.35;;
25549;SDS011;13444;50.562;7.262;2023-06-14T12:06:07;1.83;;;1.13;;
25549;SDS011;13444;50.562;7.262;2023-06-14T12:08:36;2.03;;;1.17;;
25549;SDS011;13444;50.562;7.262;2023-06-14T12:11:06;3.03;;;1.25;;
25549;SDS011;13444;50.562;7.262;2023-06-14T12:13:37;2.65;;;1.13;;
25549;SDS011;13444;50.562;7.262;2023-06-14T12:16:04;2.47;;;1.25;;
25549;SDS011;13444;50.562;7.262;2023-06-14T12:18:33;3.63;;;1.25;;
25549;SDS011;13444;50.562;7.262;2023-06-14T12:21:00;1.75;;;1.00;;
25549;SDS011;13444;50.562;7.262;2023-06-14T12:23:39;2.15;;;1.13;;
25549;SDS011;13444;50.562;7.262;2023-06-14T12:26:07;3.83;;;1.17;;
25549;SDS011;13444;50.562;7.262;2023-06-14T12:28:33;4.78;;;1.17;;
25549;SDS011;13444;50.562;7.262;2023-06-14T12:30:58;3.63;;;1.10;;
25549;SDS011;13444;50.562;7.262;2023-06-14T12:33:24;1.88;;;0.93;;
25549;SDS011;13444;50.562;7.262;2023-06-14T12:35:50;2.05;;;1.40;;
25549;SDS011;13444;50.562;7.262;2023-06-14T12:38:16;3.15;;;0.95;;
25549;SDS011;13444;50.562;7.262;2023-06-14T12:40:42;0.93;;;0.80;;
25549;SDS011;13444;50.562;7.262;2023-06-14T12:43:07;4.35;;;1.25;;
25549;SDS011;13444;50.562;7.262;2023-06-14T12:45:33;3.30;;;1.40;;
25549;SDS011;13444;50.562;7.262;2023-06-14T12:47:58;4.93;;;1.27;;
25549;SDS011;13444;50.562;7.262;2023-06-14T12:50:24;1.73;;;0.93;;
25549;SDS011;13444;50.562;7.262;2023-06-14T12:52:50;3.25;;;1.45;;
25549;SDS011;13444;50.562;7.262;2023-06-14T12:55:15;2.33;;;1.40;;
25549;SDS011;13444;50.562;7.262;2023-06-14T12:57:41;3.03;;;1.50;;
25549;SDS011;13444;50.562;7.262;2023-06-14T13:00:07;5.43;;;1.38;;
25549;SDS011;13444;50.562;7.262;2023-06-14T13:02:33;2.13;;;1.30;;
25549;SDS011;13444;50.562;7.262;2023-06-14T13:04:58;4.50;;;1.45;;
25549;SDS011;13444;50.562;7.262;2023-06-14T13:07:25;3.55;;;1.52;;
25549;SDS011;13444;50.562;7.262;2023-06-14T13:09:51;2.00;;;1.17;;
25549;SDS011;13444;50.562;7.262;2023-06-14T13:12:16;1.65;;;1.20;;
25549;SDS011;13444;50.562;7.262;2023-06-14T13:14:42;3.67;;;1.40;;
25549;SDS011;13444;50.562;7.262;2023-06-14T13:17:08;2.83;;;1.20;;
25549;SDS011;13444;50.562;7.262;2023-06-14T13:19:34;2.90;;;1.63;;
25549;SDS011;13444;50.562;7.262;2023-06-14T13:22:00;4.78;;;2.03;;
25549;SDS011;13444;50.562;7.262;2023-06-14T13:24:25;3.22;;;1.42;;
25549;SDS011;13444;50.562;7.262;2023-06-14T13:26:51;3.80;;;1.90;;
25549;SDS011;13444;50.562;7.262;2023-06-14T13:29:17;4.40;;;1.98;;
25549;SDS011;13444;50.562;7.262;2023-06-14T13:31:42;4.38;;;2.00;;
25549;SDS011;13444;50.562;7.262;2023-06-14T13:34:08;3.00;;;1.95;;
25549;SDS011;13444;50.562;7.262;2023-06-14T13:36:33;4.07;;;1.27;;
25549;SDS011;13444;50.562;7.262;2023-06-14T13:38:59;2.30;;;1.80;;
25549;SDS011;13444;50.562;7.262;2023-06-14T13:41:25;3.33;;;1.90;;
25549;SDS011;13444;50.562;7.262;2023-06-14T13:43:58;6.25;;;1.77;;
25549;SDS011;13444;50.562;7.262;2023-06-14T13:46:24;2.72;;;1.73;;
25549;SDS011;13444;50.562;7.262;2023-06-14T13:48:50;2.90;;;1.65;;
25549;SDS011;13444;50.562;7.262;2023-06-14T13:51:16;1.30;;;1.20;;
25549;SDS011;13444;50.562;7.262;2023-06-14T13:53:43;2.90;;;1.63;;
25549;SDS011;13444;50.562;7.262;2023-06-14T13:56:09;3.10;;;1.75;;
25549;SDS011;13444;50.562;7.262;2023-06-14T13:58:35;1.77;;;1.50;;
25549;SDS011;13444;50.562;7.262;2023-06-14T14:01:02;4.70;;;1.88;;
25549;SDS011;13444;50.562;7.262;2023-06-14T14:03:28;2.60;;;1.52;;
25549;SDS011;13444;50.562;7.262;2023-06-14T14:05:53;3.67;;;1.40;;
25549;SDS011;13444;50.562;7.262;2023-06-14T14:08:19;5.28;;;1.67;;
25549;SDS011;13444;50.562;7.262;2023-06-14T14:10:44;2.85;;;1.65;;
25549;SDS011;13444;50.562;7.262;2023-06-14T14:13:10;1.88;;;1.70;;
25549;SDS011;13444;50.562;7.262;2023-06-14T14:15:37;5.28;;;1.52;;
25549;SDS011;13444;50.562;7.262;2023-06-14T14:18:03;1.70;;;1.42;;
25549;SDS011;13444;50.562;7.262;2023-06-14T14:20:29;3.05;;;1.63;;
25549;SDS011;13444;50.562;7.262;2023-06-14T14:22:56;4.18;;;1.70;;
25549;SDS011;13444;50.562;7.262;2023-06-14T14:25:21;2.90;;;1.42;;
25549;SDS011;13444;50.562;7.262;2023-06-14T14:27:47;3.42;;;1.67;;
25549;SDS011;13444;50.562;7.262;2023-06-14T14:30:12;3.80;;;1.75;;
25549;SDS011;13444;50.562;7.262;2023-06-14T14:32:39;4.43;;;1.63;;
25549;SDS011;13444;50.562;7.262;2023-06-14T14:35:05;2.55;;;1.67;;
25549;SDS011;13444;50.562;7.262;2023-06-14T14:37:31;2.55;;;1.80;;
25549;SDS011;13444;50.562;7.262;2023-06-14T14:39:57;6.25;;;1.70;;
25549;SDS011;13444;50.562;7.262;2023-06-14T14:42:22;4.15;;;1.60;;
25549;SDS011;13444;50.562;7.262;2023-06-14T14:44:48;2.05;;;1.33;;
25549;SDS011;13444;50.562;7.262;2023-06-14T14:47:13;5.55;;;1.80;;
25549;SDS011;13444;50.562;7.262;2023-06-14T14:49:39;3.33;;;1.60;;
25549;SDS011;13444;50.562;7.262;2023-06-14T14:52:05;3.45;;;1.70;;
25549;SDS011;13444;50.562;7.262;2023-06-14T14:54:30;1.88;;;1.60;;
25549;SDS011;13444;50.562;7.262;2023-06-14T14:56:56;2.22;;;1.80;;
25549;SDS011;13444;50.562;7.262;2023-06-14T14:59:21;3.38;;;1.60;;
25549;SDS011;13444;50.562;7.262;2023-06-14T15:01:47;3.40;;;1.63;;